Time;durP1;ratioP1;P1;durP2;ratioP2;P2;SDS_P1;SDS_P2;PMS_P1;PMS_P2;Temp;Humidity;BMP_temperature;BMP_pressure;BME280_temperature;BME280_humidity;BME280_pressure;Samples;Min_cycle;Max_cycle;Signal;HPM_P1;HPM_P2
2024/04/16 00:00:37;;;;;;;31.00;29.70;;;20.60;52.60;;;;;;5468474;26;20481;-68
2024/04/16 00:03:06;;;;;;;31.03;29.73;;;20.60;53.10;;;;;;5468250;26;20591;-68
2024/04/16 00:05:32;;;;;;;30.30;29.00;;;20.60;52.60;;;;;;5474364;26;20458;-67
2024/04/16 00:08:00;;;;;;;30.73;29.43;;;20.50;52.60;;;;;;5474749;26;20508;-68
2024/04/16 00:10:26;;;;;;;31.70;30.30;;;20.50;52.60;;;;;;5474442;26;20225;-68
2024/04/16 00:12:55;;;;;;;31.07;29.67;;;20.50;52.60;;;;;;5473913;26;21137;-68
2024/04/16 00:15:21;;;;;;;31.63;30.20;;;20.50;52.70;;;;;;5469586;26;20674;-67
2024/04/16 00:17:52;;;;;;;32.57;31.17;;;20.50;52.70;;;;;;5468119;26;20471;-67
2024/04/16 00:20:18;;;;;;;32.30;30.70;;;20.40;52.60;;;;;;5472007;26;20464;-67
2024/04/16 00:22:47;;;;;;;31.10;29.73;;;20.40;52.60;;;;;;5473743;26;20466;-67
2024/04/16 00:25:12;;;;;;;32.03;30.23;;;20.40;52.60;;;;;;5471584;26;20284;-67
2024/04/16 00:27:41;;;;;;;31.60;30.17;;;20.40;52.60;;;;;;5468148;26;20841;-67
2024/04/16 00:30:07;;;;;;;31.10;29.70;;;20.40;52.60;;;;;;5468941;26;20268;-67
2024/04/16 00:32:35;;;;;;;31.20;29.80;;;20.40;52.70;;;;;;5473706;26;20482;-67
2024/04/16 00:35:04;;;;;;;31.20;29.80;;;20.30;52.60;;;;;;5473896;26;20462;-67
2024/04/16 00:37:33;;;;;;;31.43;30.03;;;20.30;52.60;;;;;;5474934;26;20559;-67
2024/04/16 00:39:58;;;;;;;32.27;30.87;;;20.30;52.70;;;;;;5487921;26;20510;-67
2024/04/16 00:42:27;;;;;;;31.80;30.40;;;20.30;52.70;;;;;;5468139;26;20969;-67
2024/04/16 00:44:53;;;;;;;30.70;29.30;;;20.30;52.70;;;;;;5467858;26;20277;-67
2024/04/16 00:47:21;;;;;;;32.00;30.50;;;20.20;52.60;;;;;;5471713;26;20550;-67
2024/04/16 00:49:47;;;;;;;32.03;30.63;;;20.20;52.60;;;;;;5473770;26;20263;-68
2024/04/16 00:52:18;;;;;;;32.53;31.03;;;20.20;52.70;;;;;;5470904;26;20795;-68
2024/04/16 00:54:44;;;;;;;31.27;29.90;;;20.20;52.70;;;;;;5467812;26;20598;-67
2024/04/16 00:57:13;;;;;;;31.70;30.30;;;20.20;52.70;;;;;;5469246;26;20581;-67
2024/04/16 00:59:39;;;;;;;32.50;31.10;;;20.20;52.70;;;;;;5473770;26;20518;-67
2024/04/16 01:02:08;;;;;;;31.63;30.13;;;20.20;52.70;;;;;;5473060;26;20551;-67
2024/04/16 01:04:34;;;;;;;31.50;30.00;;;20.20;52.70;;;;;;5467294;26;20530;-67
2024/04/16 01:07:02;;;;;;;31.50;30.10;;;20.10;52.70;;;;;;5467686;26;20989;-67
2024/04/16 01:09:31;;;;;;;31.90;30.50;;;20.10;52.70;;;;;;5473377;26;20237;-67
2024/04/16 01:12:00;;;;;;;32.07;30.67;;;20.10;52.70;;;;;;5473208;26;20816;-68
2024/04/16 01:14:26;;;;;;;32.00;30.60;;;20.10;52.70;;;;;;5468161;26;20467;-67
2024/04/16 01:16:54;;;;;;;41.60;40.00;;;20.10;52.70;;;;;;5465953;26;20467;-67
2024/04/16 01:19:20;;;;;;;32.60;31.20;;;20.10;52.60;;;;;;5470996;26;20604;-67
2024/04/16 01:21:48;;;;;;;32.00;30.40;;;20.10;52.60;;;;;;5473497;26;20458;-67
2024/04/16 01:24:20;;;;;;;31.07;29.67;;;20.10;52.60;;;;;;5470295;26;20586;-67
2024/04/16 01:26:49;;;;;;;31.83;30.43;;;20.10;52.60;;;;;;5467269;26;20516;-67
2024/04/16 01:29:14;;;;;;;31.90;30.50;;;20.10;52.60;;;;;;5469482;26;20459;-67
2024/04/16 01:31:43;;;;;;;32.17;30.70;;;20.10;52.60;;;;;;5473361;26;20506;-67
2024/04/16 01:34:09;;;;;;;31.10;29.60;;;20.10;52.60;;;;;;5471355;26;20241;-67
2024/04/16 01:36:37;;;;;;;31.77;30.27;;;20.10;52.60;;;;;;5467024;26;20523;-67
2024/04/16 01:39:03;;;;;;;30.63;29.13;;;20.10;52.60;;;;;;5480851;26;20267;-67
2024/04/16 01:41:34;;;;;;;30.43;29.03;;;20.10;52.60;;;;;;5467140;26;20520;-66
2024/04/16 01:44:02;;;;;;;31.17;29.77;;;20.10;52.60;;;;;;5466406;26;20526;-66
2024/04/16 01:46:30;;;;;;;39.40;37.70;;;20.10;52.60;;;;;;5472459;26;20466;-66
2024/04/16 01:48:56;;;;;;;30.43;29.13;;;20.10;52.60;;;;;;5472892;26;20454;-66
2024/04/16 01:51:24;;;;;;;30.67;28.90;;;20.10;52.60;;;;;;5468962;26;20544;-66
2024/04/16 01:53:50;;;;;;;31.67;30.27;;;20.10;52.60;;;;;;5466142;26;20272;-66
2024/04/16 01:56:19;;;;;;;31.67;30.27;;;20.10;52.60;;;;;;5469010;26;21002;-66
2024/04/16 01:58:47;;;;;;;31.03;29.63;;;20.10;52.60;;;;;;5472850;26;20267;-66
2024/04/16 02:01:15;;;;;;;31.07;29.67;;;20.10;52.60;;;;;;5457832;26;20491;-66
2024/04/16 02:03:41;;;;;;;30.70;29.40;;;20.10;52.60;;;;;;5472224;26;20510;-66
2024/04/16 02:06:10;;;;;;;31.30;29.90;;;20.10;52.60;;;;;;5472871;26;20462;-66
2024/04/16 02:08:36;;;;;;;32.17;30.63;;;20.00;52.50;;;;;;5466588;26;20758;-66
2024/04/16 02:11:05;;;;;;;32.33;30.83;;;20.00;52.50;;;;;;5466712;26;20463;-66
2024/04/16 02:13:30;;;;;;;31.03;29.63;;;20.00;52.50;;;;;;5471733;26;20267;-65
2024/04/16 02:16:01;;;;;;;31.00;29.70;;;20.10;52.60;;;;;;5472912;26;20529;-66
2024/04/16 02:18:27;;;;;;;32.30;30.37;;;20.00;52.50;;;;;;5467669;26;20234;-66
2024/04/16 02:20:55;;;;;;;32.03;30.63;;;20.00;52.50;;;;;;5466357;26;21099;-66
2024/04/16 02:23:21;;;;;;;32.83;31.33;;;20.00;52.40;;;;;;5469253;26;20226;-66
2024/04/16 02:25:52;;;;;;;31.90;30.50;;;20.00;52.50;;;;;;5472374;26;20493;-66
2024/04/16 02:28:18;;;;;;;32.20;30.57;;;20.00;52.60;;;;;;5469784;26;20329;-66
2024/04/16 02:30:46;;;;;;;31.57;30.17;;;19.90;52.60;;;;;;5466249;26;20475;-66
2024/04/16 02:33:15;;;;;;;32.53;31.03;;;19.90;52.70;;;;;;5477484;26;20242;-66
2024/04/16 02:35:44;;;;;;;32.63;31.23;;;19.90;52.70;;;;;;5474565;26;20573;-66
2024/04/16 02:38:10;;;;;;;31.60;30.20;;;19.90;52.80;;;;;;5471836;26;20462;-66
2024/04/16 02:40:38;;;;;;;31.10;29.60;;;19.90;52.70;;;;;;5472356;26;21086;-66
2024/04/16 02:43:04;;;;;;;30.70;29.40;;;19.90;52.80;;;;;;5471920;26;20225;-66
2024/04/16 02:45:33;;;;;;;32.93;31.10;;;19.90;52.70;;;;;;5466834;26;20471;-66
2024/04/16 02:47:58;;;;;;;31.10;29.80;;;19.90;52.50;;;;;;5465623;26;20226;-66
2024/04/16 02:50:30;;;;;;;31.00;29.70;;;19.90;52.50;;;;;;5469620;26;20519;-66
2024/04/16 02:52:56;;;;;;;31.50;30.07;;;19.90;52.50;;;;;;5471738;26;20221;-66
2024/04/16 02:55:24;;;;;;;31.43;30.03;;;19.90;52.50;;;;;;5468728;26;20591;-66
2024/04/16 02:57:50;;;;;;;32.17;30.77;;;19.90;52.50;;;;;;5461028;26;20720;-66
2024/04/16 03:00:19;;;;;;;32.90;31.50;;;19.80;52.40;;;;;;5470000;26;20530;-66
2024/04/16 03:02:45;;;;;;;35.20;33.70;;;19.90;52.50;;;;;;5464996;26;20270;-66
2024/04/16 03:05:13;;;;;;;35.67;34.17;;;19.80;52.50;;;;;;5465538;26;20471;-66
2024/04/16 03:07:43;;;;;;;33.83;32.33;;;19.80;52.50;;;;;;5471749;26;20775;-66
2024/04/16 03:10:15;;;;;;;36.10;34.50;;;19.80;52.50;;;;;;5471793;26;20512;-66
2024/04/16 03:12:41;;;;;;;33.87;32.37;;;19.80;52.70;;;;;;5472726;26;20470;-66
2024/04/16 03:15:10;;;;;;;34.23;32.73;;;19.80;52.60;;;;;;5471632;26;20525;-66
2024/04/16 03:17:37;;;;;;;32.57;31.07;;;19.80;52.60;;;;;;5472049;26;20462;-66
2024/04/16 03:20:06;;;;;;;31.90;30.40;;;19.80;52.60;;;;;;5471557;26;20856;-66
2024/04/16 03:22:32;;;;;;;33.50;31.90;;;19.80;52.60;;;;;;5465316;26;20471;-66
2024/04/16 03:25:04;;;;;;;33.67;32.07;;;19.80;52.60;;;;;;5465153;26;20530;-66
2024/04/16 03:27:29;;;;;;;31.93;30.53;;;19.90;52.70;;;;;;5470002;26;20226;-66
2024/04/16 03:29:58;;;;;;;33.20;31.70;;;19.80;52.70;;;;;;5471291;26;20794;-66
2024/04/16 03:32:23;;;;;;;32.17;30.77;;;19.80;52.80;;;;;;5467487;26;20708;-66
2024/04/16 03:34:53;;;;;;;31.83;30.43;;;19.80;52.80;;;;;;5464677;26;20463;-66
2024/04/16 03:37:21;;;;;;;31.47;29.87;;;19.80;52.90;;;;;;5466819;26;20268;-66
2024/04/16 03:39:50;;;;;;;32.50;31.00;;;19.80;53.00;;;;;;5478238;26;20467;-66
2024/04/16 03:42:21;;;;;;;33.63;32.13;;;19.80;53.00;;;;;;5469053;26;20467;-66
2024/04/16 03:44:53;;;;;;;33.33;31.83;;;19.80;53.00;;;;;;5474743;26;20450;-66
2024/04/16 03:47:19;;;;;;;32.50;31.10;;;19.80;53.00;;;;;;5473010;26;20466;-66
2024/04/16 03:49:47;;;;;;;33.40;31.93;;;19.80;53.00;;;;;;5468403;26;20879;-66
2024/04/16 03:52:13;;;;;;;32.47;31.07;;;19.80;53.00;;;;;;5468163;26;20273;-66
2024/04/16 03:54:43;;;;;;;32.80;31.20;;;19.80;53.00;;;;;;5474482;26;20988;-66
2024/04/16 03:57:09;;;;;;;32.70;31.30;;;19.80;53.00;;;;;;5474800;26;20228;-66
2024/04/16 04:00:59;;;;;;;33.97;32.37;;;19.70;52.90;;;;;;5469041;26;20956;-66
2024/04/16 04:02:26;;;;;;;34.50;32.47;;;19.80;53.00;;;;;;5470825;26;20269;-66
2024/04/16 04:04:54;;;;;;;36.13;34.40;;;19.70;52.90;;;;;;5474466;26;20469;-66
2024/04/16 04:07:20;;;;;;;34.97;33.37;;;19.70;52.90;;;;;;5472692;26;20259;-66
2024/04/16 04:09:49;;;;;;;35.77;33.90;;;19.70;52.80;;;;;;5468180;26;20473;-66
2024/04/16 04:12:17;;;;;;;34.37;32.87;;;19.70;52.80;;;;;;5468369;26;20222;-66
2024/04/16 04:14:46;;;;;;;36.90;35.20;;;19.70;52.80;;;;;;5474349;26;20472;-66
2024/04/16 04:17:14;;;;;;;35.57;33.97;;;19.70;52.80;;;;;;5474462;26;20470;-66
2024/04/16 04:19:40;;;;;;;35.50;34.00;;;19.70;52.80;;;;;;5474232;26;20462;-66
2024/04/16 04:22:10;;;;;;;34.87;33.27;;;19.70;52.80;;;;;;5473855;26;20943;-65
2024/04/16 04:24:35;;;;;;;37.80;36.10;;;19.70;52.80;;;;;;5468606;26;20230;-66
2024/04/16 04:27:04;;;;;;;37.03;35.43;;;19.70;52.70;;;;;;5468049;26;20475;-66
2024/04/16 04:29:30;;;;;;;35.73;34.23;;;19.60;52.60;;;;;;5471999;26;20271;-66
2024/04/16 04:32:01;;;;;;;36.47;34.80;;;19.70;52.70;;;;;;5474268;26;20466;-66
2024/04/16 04:34:27;;;;;;;39.47;37.87;;;19.60;52.70;;;;;;5470705;26;20236;-66
2024/04/16 04:36:55;;;;;;;38.07;36.37;;;19.60;52.90;;;;;;5467989;26;20606;-66
2024/04/16 04:39:21;;;;;;;38.47;36.77;;;19.60;53.00;;;;;;5480690;26;20324;-66
2024/04/16 04:41:49;;;;;;;36.90;35.30;;;19.50;53.00;;;;;;5467823;26;20455;-66
2024/04/16 04:44:15;;;;;;;34.20;32.57;;;19.60;53.10;;;;;;5467113;26;20234;-66
2024/04/16 04:46:43;;;;;;;36.27;34.37;;;19.60;53.20;;;;;;5474091;26;20880;-67
2024/04/16 04:49:11;;;;;;;38.47;36.37;;;19.60;55.60;;;;;;5473819;26;20765;-66
2024/04/16 04:51:40;;;;;;;41.00;38.30;;;19.60;56.10;;;;;;5468192;26;20463;-66
2024/04/16 04:54:06;;;;;;;38.07;36.07;;;19.60;57.90;;;;;;5467008;26;21013;-66
2024/04/16 04:56:34;;;;;;;38.57;36.13;;;19.70;58.90;;;;;;5471767;26;20602;-66
2024/04/16 04:59:00;;;;;;;37.27;34.80;;;19.70;60.30;;;;;;5473769;26;20263;-66
2024/04/16 05:01:28;;;;;;;40.10;37.17;;;19.70;59.60;;;;;;5473978;26;20825;-66
2024/04/16 05:03:54;;;;;;;41.50;38.23;;;19.70;63.40;;;;;;5473179;26;20229;-66
2024/04/16 05:06:25;;;;;;;37.93;35.07;;;19.70;67.10;;;;;;5458789;26;20531;-66
2024/04/16 05:08:50;;;;;;;35.47;33.37;;;19.70;69.50;;;;;;5469246;26;20226;-63
2024/04/16 05:11:19;;;;;;;37.80;35.13;;;19.70;70.00;;;;;;5467454;26;20528;-62
2024/04/16 05:13:45;;;;;;;35.43;33.27;;;19.70;70.00;;;;;;5472948;26;20288;-62
2024/04/16 05:16:13;;;;;;;36.83;34.40;;;19.70;70.30;;;;;;5473803;26;20915;-63
2024/04/16 05:18:39;;;;;;;37.27;34.80;;;19.70;70.10;;;;;;5467840;26;20647;-62
2024/04/16 05:21:07;;;;;;;39.43;36.47;;;19.70;69.30;;;;;;5467096;26;20479;-63
2024/04/16 05:23:36;;;;;;;39.47;36.73;;;19.70;68.70;;;;;;5470918;26;20230;-62
2024/04/16 05:26:05;;;;;;;36.10;34.30;;;19.70;68.20;;;;;;5473433;26;20483;-60
2024/04/16 05:28:31;;;;;;;36.57;34.10;;;19.70;67.50;;;;;;5469665;26;20886;-63
2024/04/16 05:31:00;;;;;;;35.20;33.30;;;19.70;67.10;;;;;;5467095;26;20531;-62
2024/04/16 05:33:26;;;;;;;35.17;33.20;;;19.70;66.60;;;;;;5468457;26;20520;-62
2024/04/16 05:35:54;;;;;;;36.93;34.73;;;19.70;65.90;;;;;;5473324;26;20988;-63
2024/04/16 05:38:20;;;;;;;35.10;33.23;;;19.70;65.40;;;;;;5472390;26;20461;-62
2024/04/16 05:40:51;;;;;;;35.37;33.13;;;19.70;65.00;;;;;;5466939;26;20578;-62
2024/04/16 05:43:17;;;;;;;38.50;35.73;;;19.70;64.50;;;;;;5466375;26;20225;-61
2024/04/16 05:45:45;;;;;;;37.23;34.73;;;19.60;64.20;;;;;;5481654;26;20516;-61
2024/04/16 05:48:11;;;;;;;37.17;34.57;;;19.60;63.70;;;;;;5467255;26;20272;-62
2024/04/16 05:50:39;;;;;;;38.37;36.17;;;19.60;63.30;;;;;;5471862;26;20467;-61
2024/04/16 05:53:05;;;;;;;36.43;34.40;;;19.70;63.20;;;;;;5472609;26;20695;-62
2024/04/16 05:55:33;;;;;;;40.07;37.77;;;19.70;62.80;;;;;;5469769;26;20526;-60
2024/04/16 05:58:01;;;;;;;37.53;35.20;;;19.60;62.30;;;;;;5466638;26;20226;-61
2024/04/16 06:00:30;;;;;;;37.00;34.90;;;19.60;62.00;;;;;;5468777;26;21017;-62
2024/04/16 06:02:56;;;;;;;37.63;35.83;;;19.60;61.70;;;;;;5477103;26;20565;-62
2024/04/16 06:05:26;;;;;;;38.50;36.70;;;19.60;61.40;;;;;;5467692;26;20819;-62
2024/04/16 06:07:52;;;;;;;40.70;38.27;;;19.60;61.20;;;;;;5473010;26;20518;-62
2024/04/16 06:10:20;;;;;;;40.40;38.27;;;19.60;61.00;;;;;;5472742;26;20533;-62
2024/04/16 06:12:46;;;;;;;35.63;33.87;;;19.60;60.80;;;;;;5473035;26;20469;-62
2024/04/16 06:15:17;;;;;;;37.97;35.80;;;19.60;60.90;;;;;;5472682;26;20534;-62
2024/04/16 06:17:43;;;;;;;38.23;36.43;;;19.50;60.40;;;;;;5466595;26;20226;-61
2024/04/16 06:20:12;;;;;;;38.70;36.60;;;19.50;60.30;;;;;;5466292;26;20956;-62
2024/04/16 06:22:39;;;;;;;41.97;39.47;;;19.60;60.10;;;;;;5470699;26;20260;-62
2024/04/16 06:25:08;;;;;;;40.73;38.37;;;19.50;59.90;;;;;;5472682;26;20470;-61
2024/04/16 06:27:34;;;;;;;39.10;37.10;;;19.60;59.80;;;;;;5468517;26;20465;-62
2024/04/16 06:30:03;;;;;;;39.70;37.60;;;19.50;59.80;;;;;;5466001;26;20524;-62
2024/04/16 06:32:31;;;;;;;40.53;38.63;;;19.60;59.60;;;;;;5467987;26;20532;-62
2024/04/16 06:34:59;;;;;;;38.40;36.40;;;19.60;59.40;;;;;;5472373;26;20812;-60
2024/04/16 06:37:25;;;;;;;39.17;37.37;;;19.60;59.30;;;;;;5470885;26;21071;-62
2024/04/16 06:39:54;;;;;;;39.90;38.07;;;19.50;59.00;;;;;;5466212;26;20466;-62
2024/04/16 06:42:20;;;;;;;38.20;36.10;;;19.60;59.00;;;;;;5465435;26;20891;-61
2024/04/16 06:44:48;;;;;;;39.73;37.83;;;19.60;58.80;;;;;;5472341;26;20470;-62
2024/04/16 06:47:14;;;;;;;38.30;36.60;;;19.50;58.70;;;;;;5472166;26;20553;-61
2024/04/16 06:49:47;;;;;;;40.60;38.70;;;19.50;58.60;;;;;;5467229;26;20563;-62
2024/04/16 06:52:12;;;;;;;39.70;38.10;;;19.50;58.60;;;;;;5465772;26;20463;-62
2024/04/16 06:54:41;;;;;;;37.37;35.20;;;19.50;58.50;;;;;;5470204;26;20986;-61
2024/04/16 06:57:06;;;;;;;37.40;35.70;;;19.50;58.40;;;;;;5471941;26;20792;-62
2024/04/16 06:59:35;;;;;;;39.70;37.97;;;19.50;58.30;;;;;;5468607;26;20466;-62
2024/04/16 07:02:01;;;;;;;40.83;39.10;;;19.50;58.30;;;;;;5465204;26;20371;-61
2024/04/16 07:04:29;;;;;;;38.27;36.40;;;19.50;58.20;;;;;;5466694;26;20997;-61
2024/04/16 07:07:00;;;;;;;40.77;38.87;;;19.50;58.20;;;;;;5471828;26;20220;-62
2024/04/16 07:09:26;;;;;;;41.47;39.10;;;19.50;58.10;;;;;;5470415;26;20470;-60
2024/04/16 07:11:54;;;;;;;41.10;39.00;;;19.50;58.00;;;;;;5465518;26;20463;-62
2024/04/16 07:14:22;;;;;;;39.40;37.60;;;19.50;58.00;;;;;;5466360;26;20263;-59
2024/04/16 07:16:49;;;;;;;39.37;37.67;;;19.50;58.00;;;;;;5475877;26;20458;-59
2024/04/16 07:19:17;;;;;;;38.47;36.20;;;19.50;58.00;;;;;;5475171;26;20863;-61
2024/04/16 07:21:43;;;;;;;39.90;38.10;;;19.50;57.90;;;;;;5469722;26;20804;-58
2024/04/16 07:24:14;;;;;;;40.70;38.73;;;19.50;57.70;;;;;;5468143;26;20529;-60
2024/04/16 07:26:40;;;;;;;41.40;39.50;;;19.50;57.60;;;;;;5473442;26;20264;-56
2024/04/16 07:29:08;;;;;;;39.93;37.93;;;19.50;57.60;;;;;;5475049;26;20462;-59
2024/04/16 07:31:34;;;;;;;39.53;37.70;;;19.50;57.70;;;;;;5472113;26;20590;-59
2024/04/16 07:34:02;;;;;;;38.90;37.10;;;19.50;57.50;;;;;;5467993;26;20475;-61
2024/04/16 07:36:28;;;;;;;38.57;36.77;;;19.50;57.40;;;;;;5470108;26;20321;-60
2024/04/16 07:38:56;;;;;;;37.13;35.23;;;19.50;57.40;;;;;;5474874;26;20808;-62
2024/04/16 07:41:25;;;;;;;37.27;35.53;;;19.50;57.30;;;;;;5474923;26;20225;-61
2024/04/16 07:43:53;;;;;;;37.07;35.17;;;19.50;57.70;;;;;;5475121;26;20526;-60
2024/04/16 07:46:19;;;;;;;38.97;37.17;;;19.50;57.10;;;;;;5475115;26;20514;-62
2024/04/16 07:48:47;;;;;;;39.17;37.37;;;19.50;57.10;;;;;;5469589;26;20473;-60
2024/04/16 07:51:13;;;;;;;36.17;34.57;;;19.50;57.10;;;;;;5468682;26;20222;-62
2024/04/16 07:53:41;;;;;;;40.10;38.27;;;19.50;57.00;;;;;;5471729;26;20579;-60
2024/04/16 07:56:07;;;;;;;40.70;38.90;;;19.40;56.90;;;;;;5474864;26;20225;-59
2024/04/16 07:58:38;;;;;;;42.63;40.73;;;19.40;57.00;;;;;;5472579;26;20788;-60
2024/04/16 08:01:04;;;;;;;36.67;35.07;;;19.40;56.90;;;;;;5468313;26;20759;-60
2024/04/16 08:03:32;;;;;;;38.70;36.87;;;19.40;56.90;;;;;;5469163;26;20526;-61
2024/04/16 08:05:58;;;;;;;38.43;36.83;;;19.50;56.90;;;;;;5474510;26;20225;-60
2024/04/16 08:08:27;;;;;;;39.37;37.70;;;19.40;56.80;;;;;;5474398;26;20999;-62
2024/04/16 08:10:53;;;;;;;39.80;37.80;;;19.40;56.80;;;;;;5468131;26;20463;-59
2024/04/16 08:13:22;;;;;;;38.10;36.50;;;19.40;56.70;;;;;;5467571;26;20593;-60
2024/04/16 08:15:51;;;;;;;39.13;37.43;;;19.40;56.70;;;;;;5474231;26;20237;-61
2024/04/16 08:18:19;;;;;;;39.70;37.90;;;19.50;56.70;;;;;;5474469;26;20470;-58
2024/04/16 08:20:45;;;;;;;39.00;37.33;;;19.40;56.60;;;;;;5469103;26;20617;-59
2024/04/16 08:23:13;;;;;;;38.70;37.10;;;19.40;56.60;;;;;;5467559;26;20519;-61
2024/04/16 08:25:39;;;;;;;38.20;36.60;;;19.40;56.60;;;;;;5471099;26;20515;-60
2024/04/16 08:28:08;;;;;;;38.43;36.80;;;19.40;56.60;;;;;;5474760;26;20466;-60
2024/04/16 08:30:33;;;;;;;39.10;37.40;;;19.40;56.60;;;;;;5471789;26;20605;-60
2024/04/16 08:33:05;;;;;;;39.40;37.70;;;19.40;56.60;;;;;;5467406;26;20467;-59
2024/04/16 08:35:31;;;;;;;38.97;37.33;;;19.40;56.60;;;;;;5469018;26;20229;-60
2024/04/16 08:38:00;;;;;;;38.10;36.43;;;19.40;56.70;;;;;;5474024;26;20466;-61
2024/04/16 08:40:25;;;;;;;39.67;37.87;;;19.40;56.60;;;;;;5473801;26;20518;-60
2024/04/16 08:42:55;;;;;;;39.00;37.20;;;19.40;56.60;;;;;;5473603;26;20470;-60
2024/04/16 08:45:22;;;;;;;38.10;36.50;;;19.40;56.60;;;;;;5473941;26;20299;-61
2024/04/16 08:47:51;;;;;;;39.87;38.27;;;19.40;56.60;;;;;;5468557;26;20516;-59
2024/04/16 08:50:21;;;;;;;38.77;37.10;;;19.30;56.70;;;;;;5467553;26;20459;-59
2024/04/16 08:52:50;;;;;;;38.10;36.50;;;19.30;56.60;;;;;;5472135;26;20469;-61
2024/04/16 08:55:17;;;;;;;39.80;38.10;;;19.30;56.60;;;;;;5473855;26;20466;-61
2024/04/16 08:57:46;;;;;;;38.40;36.70;;;19.30;56.60;;;;;;5469696;26;20458;-60
2024/04/16 09:00:12;;;;;;;39.33;37.53;;;19.40;56.70;;;;;;5467350;26;20567;-61
2024/04/16 09:02:41;;;;;;;38.80;37.20;;;19.40;56.60;;;;;;5469888;26;20483;-61
2024/04/16 09:05:07;;;;;;;38.87;37.33;;;19.30;56.50;;;;;;5473665;26;20523;-60
2024/04/16 09:07:40;;;;;;;38.90;37.30;;;19.40;56.60;;;;;;5472086;26;20466;-58
2024/04/16 09:10:13;;;;;;;37.93;36.43;;;19.40;57.20;;;;;;5467216;26;21001;-59
2024/04/16 09:12:43;;;;;;;38.70;37.00;;;19.40;56.60;;;;;;5469646;26;20471;-61
2024/04/16 09:15:09;;;;;;;36.80;35.30;;;19.40;56.70;;;;;;5473551;26;20466;-61
2024/04/16 09:17:38;;;;;;;38.27;36.67;;;19.40;56.50;;;;;;5471521;26;20470;-61
2024/04/16 09:20:04;;;;;;;38.60;37.00;;;19.40;56.70;;;;;;5467142;26;20467;-61
2024/04/16 09:22:33;;;;;;;36.40;34.90;;;19.40;56.60;;;;;;5467097;26;20825;-61
2024/04/16 09:25:07;;;;;;;35.50;34.00;;;19.40;56.50;;;;;;5473103;26;20841;-61
2024/04/16 09:27:35;;;;;;;36.70;35.20;;;19.40;56.40;;;;;;5472141;26;20753;-60
2024/04/16 09:30:06;;;;;;;38.30;36.70;;;19.40;56.40;;;;;;5466958;26;20467;-61
2024/04/16 09:32:34;;;;;;;37.50;35.87;;;19.40;56.40;;;;;;5467224;26;20476;-58
2024/04/16 09:35:00;;;;;;;38.63;37.13;;;19.40;56.40;;;;;;5473010;26;20514;-62
2024/04/16 09:37:28;;;;;;;37.23;35.63;;;19.40;56.40;;;;;;5472010;26;20466;-60
2024/04/16 09:39:54;;;;;;;37.43;35.20;;;19.40;56.90;;;;;;5473304;26;20719;-59
2024/04/16 09:42:26;;;;;;;36.77;35.27;;;19.50;56.40;;;;;;5472552;26;20862;-60
2024/04/16 09:44:52;;;;;;;38.37;36.77;;;19.40;56.30;;;;;;5467204;26;20230;-62
2024/04/16 09:47:21;;;;;;;36.10;34.60;;;19.40;56.30;;;;;;5466941;26;20570;-61
2024/04/16 09:49:50;;;;;;;38.20;36.60;;;19.50;56.40;;;;;;5471075;26;20463;-60
2024/04/16 09:52:21;;;;;;;37.27;35.50;;;19.50;56.30;;;;;;5472363;26;20614;-61
2024/04/16 09:54:49;;;;;;;40.80;39.10;;;19.50;56.40;;;;;;5468473;26;20569;-61
2024/04/16 09:57:18;;;;;;;38.10;36.50;;;19.50;56.30;;;;;;5466514;26;20479;-61
2024/04/16 09:59:47;;;;;;;40.23;38.60;;;19.40;56.20;;;;;;5469946;26;20532;-61
2024/04/16 10:02:15;;;;;;;37.50;35.90;;;19.50;56.30;;;;;;5472463;26;21009;-59
2024/04/16 10:04:42;;;;;;;37.80;36.20;;;19.40;56.20;;;;;;5469701;26;20545;-61
2024/04/16 10:07:11;;;;;;;38.57;36.63;;;19.40;56.20;;;;;;5466535;26;21134;-61
2024/04/16 10:09:38;;;;;;;39.27;37.63;;;19.40;56.20;;;;;;5468089;26;20455;-59
2024/04/16 10:12:08;;;;;;;40.80;39.10;;;19.40;56.20;;;;;;5472158;26;20478;-61
2024/04/16 10:14:35;;;;;;;39.47;37.77;;;19.40;56.20;;;;;;5471624;26;20938;-61
2024/04/16 10:17:06;;;;;;;37.53;35.90;;;19.50;56.20;;;;;;5466418;26;20795;-61
2024/04/16 10:19:32;;;;;;;37.77;35.97;;;19.40;56.10;;;;;;5466743;26;20519;-61
2024/04/16 10:22:04;;;;;;;35.67;34.07;;;19.40;56.10;;;;;;5472398;26;20996;-61
2024/04/16 10:24:30;;;;;;;39.37;37.77;;;19.40;56.10;;;;;;5472679;26;20229;-60
2024/04/16 10:27:01;;;;;;;38.40;36.80;;;19.40;56.10;;;;;;5466219;26;20851;-58
2024/04/16 10:29:27;;;;;;;39.10;37.50;;;19.40;56.10;;;;;;5466214;26;20276;-60
2024/04/16 10:31:58;;;;;;;38.77;37.13;;;19.40;56.00;;;;;;5471626;26;20454;-60
2024/04/16 10:34:27;;;;;;;40.27;38.67;;;19.40;56.00;;;;;;5471748;26;20357;-61
2024/04/16 10:36:58;;;;;;;38.93;37.33;;;19.40;56.00;;;;;;5466703;26;20463;-62
2024/04/16 10:39:27;;;;;;;38.40;36.80;;;19.40;56.00;;;;;;5466056;26;20535;-61
2024/04/16 10:41:57;;;;;;;37.67;36.07;;;19.40;55.90;;;;;;5471134;26;20478;-59
2024/04/16 10:44:23;;;;;;;35.90;34.40;;;19.40;55.90;;;;;;5471736;26;20470;-61
2024/04/16 10:46:55;;;;;;;36.80;35.30;;;19.40;55.90;;;;;;5467842;26;20474;-61
2024/04/16 10:49:22;;;;;;;39.10;37.50;;;19.40;55.90;;;;;;5468915;26;20523;-60
2024/04/16 10:51:54;;;;;;;38.83;37.13;;;19.40;55.90;;;;;;5473440;26;20467;-61
2024/04/16 10:54:20;;;;;;;39.17;37.43;;;19.40;56.30;;;;;;5475033;26;20517;-61
2024/04/16 10:56:50;;;;;;;39.57;37.97;;;19.40;55.80;;;;;;5472301;26;20461;-59
2024/04/16 10:59:17;;;;;;;38.83;37.23;;;19.40;55.80;;;;;;5469566;26;20467;-60
2024/04/16 11:01:47;;;;;;;38.50;36.87;;;19.40;55.80;;;;;;5471827;26;21110;-61
2024/04/16 11:04:14;;;;;;;37.70;35.97;;;19.40;55.80;;;;;;5474777;26;20466;-61
2024/04/16 11:06:43;;;;;;;38.00;36.50;;;19.40;55.70;;;;;;5473562;26;20573;-57
2024/04/16 11:09:12;;;;;;;37.80;36.23;;;19.40;55.70;;;;;;5505819;21;20995;-61
2024/04/16 11:11:42;;;;;;;40.03;38.10;;;19.40;55.70;;;;;;5481577;26;20520;-60
2024/04/16 11:14:08;;;;;;;40.17;38.57;;;19.40;55.80;;;;;;5507025;25;20464;-61
2024/04/16 11:16:37;;;;;;;39.80;38.20;;;19.40;55.80;;;;;;5478531;26;20581;-60
2024/04/16 11:19:03;;;;;;;38.20;36.70;;;19.40;55.80;;;;;;5494499;26;20985;-61
2024/04/16 11:21:34;;;;;;;40.03;38.43;;;19.40;55.80;;;;;;5494237;26;20525;-60
2024/04/16 11:24:00;;;;;;;40.80;39.20;;;19.40;55.80;;;;;;5464739;26;20855;-61
2024/04/16 11:26:32;;;;;;;40.10;38.50;;;19.40;56.30;;;;;;5478168;26;20545;-62
2024/04/16 11:28:57;;;;;;;36.43;34.83;;;19.50;55.80;;;;;;5491453;26;20520;-61
2024/04/16 11:31:27;;;;;;;37.47;35.97;;;19.40;55.80;;;;;;5492689;26;20468;-61
2024/04/16 11:33:54;;;;;;;36.50;34.90;;;19.50;55.80;;;;;;5480785;26;20224;-61
2024/04/16 11:36:23;;;;;;;36.50;34.90;;;19.50;55.80;;;;;;5477933;26;20472;-61
2024/04/16 11:38:51;;;;;;;36.93;35.43;;;19.50;55.90;;;;;;5477907;26;20799;-59
2024/04/16 11:41:20;;;;;;;38.13;36.57;;;19.50;55.80;;;;;;5478403;26;21005;-60
2024/04/16 11:43:49;;;;;;;39.57;37.97;;;19.50;55.90;;;;;;5485412;26;20472;-62
2024/04/16 11:46:18;;;;;;;38.40;36.80;;;19.50;55.90;;;;;;5492321;26;20574;-62
2024/04/16 11:48:45;;;;;;;38.53;36.93;;;19.50;56.00;;;;;;5487109;26;20468;-62
2024/04/16 11:51:13;;;;;;;37.30;35.80;;;19.50;56.00;;;;;;5478849;26;20527;-62
2024/04/16 11:53:40;;;;;;;37.13;35.53;;;19.50;56.00;;;;;;5481153;26;20503;-62
2024/04/16 11:56:09;;;;;;;38.13;36.63;;;19.50;55.90;;;;;;5493606;26;20468;-62
2024/04/16 11:58:34;;;;;;;37.90;36.40;;;19.50;55.90;;;;;;5493716;26;20520;-60
2024/04/16 12:01:06;;;;;;;38.60;36.80;;;19.50;55.90;;;;;;5463940;26;20467;-62
2024/04/16 12:03:31;;;;;;;38.93;37.33;;;19.50;55.90;;;;;;5479066;26;20379;-60
2024/04/16 12:06:00;;;;;;;36.03;34.57;;;19.50;55.80;;;;;;5490933;26;20477;-62
2024/04/16 12:08:26;;;;;;;34.63;33.20;;;19.50;55.90;;;;;;5491604;26;20331;-62
2024/04/16 12:10:54;;;;;;;37.30;35.70;;;19.50;55.90;;;;;;5482758;26;20472;-61
2024/04/16 12:13:20;;;;;;;39.10;37.50;;;19.60;55.90;;;;;;5476939;26;20226;-62
2024/04/16 12:15:48;;;;;;;38.47;36.97;;;19.50;55.80;;;;;;5483231;26;20476;-62
2024/04/16 12:18:16;;;;;;;40.10;38.40;;;19.50;55.80;;;;;;5492669;26;20278;-62
2024/04/16 12:20:45;;;;;;;39.50;37.90;;;19.50;55.80;;;;;;5489235;26;20814;-61
2024/04/16 12:23:10;;;;;;;40.03;38.43;;;19.50;55.80;;;;;;5478216;26;20590;-61
2024/04/16 12:25:39;;;;;;;38.33;36.73;;;19.50;55.70;;;;;;5478736;26;21043;-60
2024/04/16 12:28:05;;;;;;;36.23;34.73;;;19.50;55.70;;;;;;5464557;26;20226;-61
2024/04/16 12:30:33;;;;;;;38.00;36.40;;;19.50;55.70;;;;;;5478792;26;20546;-62